createdAt,value
2022-11-19T00:01:06.533Z,96139.03
2022-11-19T00:03:33.787Z,96145.88
2022-11-19T00:06:07.598Z,96145.88
2022-11-19T00:08:34.103Z,96148.78
2022-11-19T00:11:09.301Z,96147.16
2022-11-19T00:13:36.083Z,96150.75
2022-11-19T00:16:03.142Z,96150.75
2022-11-19T00:18:30.098Z,96149.78
2022-11-19T00:20:56.945Z,96152.06
2022-11-19T00:23:23.494Z,96155.66
2022-11-19T00:25:49.952Z,96150.75
2022-11-19T00:28:16.455Z,96153.22
2022-11-19T00:30:50.130Z,96157.28
2022-11-19T00:33:16.586Z,96157.78
2022-11-19T00:35:43.030Z,96154.19
2022-11-19T00:38:09.487Z,96151.72
2022-11-19T00:40:35.952Z,96153.34
2022-11-19T00:43:21.262Z,96149.75
2022-11-19T00:45:49.110Z,96152.19
2022-11-19T00:48:15.674Z,96151.38
2022-11-19T00:50:42.497Z,96158.25
2022-11-19T00:53:08.927Z,96153.00
2022-11-19T00:55:35.346Z,96155.91
2022-11-19T00:58:01.811Z,96160.78
2022-11-19T01:00:28.273Z,96162.78
2022-11-19T01:02:54.771Z,96159.16
2022-11-19T01:05:21.198Z,96164.09
2022-11-19T01:07:47.630Z,96169.97
2022-11-19T01:10:14.108Z,96169.97
2022-11-19T01:13:00.509Z,96164.75
2022-11-19T01:15:26.945Z,96167.06
2022-11-19T01:17:53.393Z,96166.25
2022-11-19T01:20:19.975Z,96173.44
2022-11-19T01:22:46.482Z,96181.75
2022-11-19T01:25:12.949Z,96188.66
2022-11-19T01:27:39.359Z,96183.47
2022-11-19T01:30:06.099Z,96191.31
2022-11-19T01:32:32.982Z,96190.69
2022-11-19T01:34:59.398Z,96194.81
2022-11-19T01:37:26.458Z,96191.22
2022-11-19T01:39:52.903Z,96192.88
2022-11-19T01:42:45.175Z,96189.78
2022-11-19T01:45:24.957Z,96191.72
2022-11-19T01:47:52.688Z,96204.78
2022-11-19T01:50:19.146Z,96205.75
2022-11-19T01:52:45.592Z,96202.19
2022-11-19T01:55:12.032Z,96207.41
2022-11-19T01:57:38.953Z,96194.19
2022-11-19T02:00:05.902Z,96209.97
2022-11-19T02:02:32.449Z,96214.88
2022-11-19T02:04:58.946Z,96211.78
2022-11-19T02:07:29.509Z,96210.00
2022-11-19T02:09:56.413Z,96215.16
2022-11-19T02:12:38.076Z,96213.53
2022-11-19T02:15:13.853Z,96212.56
2022-11-19T02:17:59.162Z,96229.00
2022-11-19T02:20:25.596Z,96229.50
2022-11-19T02:23:01.270Z,96236.00
2022-11-19T02:25:30.744Z,96237.97
2022-11-19T02:28:00.209Z,96235.69
2022-11-19T02:30:27.178Z,96230.94
2022-11-19T02:33:03.671Z,96229.59
2022-11-19T02:35:44.917Z,96239.50
2022-11-19T02:38:14.321Z,96244.41
2022-11-19T02:40:41.936Z,96249.25
2022-11-19T02:43:08.315Z,96243.72
2022-11-19T02:45:38.624Z,96237.69
2022-11-19T02:48:25.341Z,96239.66
2022-11-19T02:50:52.872Z,96249.25
2022-11-19T02:53:19.640Z,96249.25
2022-11-19T02:56:09.021Z,96252.50
2022-11-19T02:58:54.258Z,96247.03
2022-11-19T03:01:39.326Z,96250.41
2022-11-19T03:04:24.619Z,96256.91
2022-11-19T03:06:51.016Z,96257.06
2022-11-19T03:09:17.973Z,96264.06
2022-11-19T03:11:44.659Z,96260.47
2022-11-19T03:14:33.426Z,96260.44
2022-11-19T03:17:21.386Z,96261.69
2022-11-19T03:19:52.198Z,96265.38
2022-11-19T03:22:19.439Z,96267.19
2022-11-19T03:24:47.038Z,96275.22
2022-11-19T03:27:17.407Z,96275.84
2022-11-19T03:29:44.422Z,96275.53
2022-11-19T03:32:16.429Z,96270.94
2022-11-19T03:34:43.367Z,96273.53
2022-11-19T03:37:09.885Z,96275.84
2022-11-19T03:39:36.802Z,96269.97
2022-11-19T03:42:03.834Z,96263.88
2022-11-19T03:44:34.501Z,96266.63
2022-11-19T03:47:02.160Z,96274.59
2022-11-19T03:49:31.655Z,96269.38
2022-11-19T03:51:59.860Z,96272.44
2022-11-19T03:54:26.269Z,96273.56
2022-11-19T03:56:52.702Z,96274.69
2022-11-19T03:59:19.973Z,96289.75
2022-11-19T04:01:47.549Z,96283.69
2022-11-19T04:04:32.805Z,96283.72
2022-11-19T04:07:01.149Z,96283.88
2022-11-19T04:09:27.594Z,96288.28
2022-11-19T04:14:19.378Z,96301.88
2022-11-19T04:16:46.044Z,96301.41
2022-11-19T04:19:12.517Z,96290.72
2022-11-19T04:21:39.001Z,96298.63
2022-11-19T04:24:05.562Z,96295.91
2022-11-19T04:26:32.037Z,96309.06
2022-11-19T04:28:58.425Z,96300.38
2022-11-19T04:31:24.964Z,96311.91
2022-11-19T04:33:51.386Z,96309.75
2022-11-19T04:36:17.828Z,96313.28
2022-11-19T04:38:44.234Z,96317.75
2022-11-19T04:41:10.662Z,96322.28
2022-11-19T04:43:37.055Z,96324.56
2022-11-19T04:46:03.504Z,96324.63
2022-11-19T04:48:29.895Z,96331.31
2022-11-19T04:50:56.314Z,96332.56
2022-11-19T04:53:22.760Z,96330.63
2022-11-19T04:55:49.232Z,96329.56
2022-11-19T04:58:15.654Z,96332.84
2022-11-19T05:00:42.074Z,96336.09
2022-11-19T05:03:08.478Z,96335.28
2022-11-19T05:05:34.887Z,96327.66
2022-11-19T05:08:01.307Z,96326.69
2022-11-19T05:10:27.749Z,96321.91
2022-11-19T05:12:54.180Z,96320.50
2022-11-19T05:15:20.633Z,96323.22
2022-11-19T05:17:48.101Z,96326.78
2022-11-19T05:20:14.679Z,96335.56
2022-11-19T05:22:41.077Z,96333.84
2022-11-19T05:25:07.676Z,96335.63
2022-11-19T05:27:34.143Z,96345.66
2022-11-19T05:30:00.556Z,96348.09
2022-11-19T05:32:27.015Z,96345.06
2022-11-19T05:34:53.452Z,96344.56
2022-11-19T05:37:19.894Z,96347.03
2022-11-19T05:39:46.308Z,96344.88
2022-11-19T05:42:12.972Z,96349.84
2022-11-19T05:44:39.382Z,96350.66
2022-11-19T05:47:05.814Z,96348.88
2022-11-19T05:49:32.226Z,96356.00
2022-11-19T05:51:58.661Z,96347.69
2022-11-19T05:54:25.146Z,96353.13
2022-11-19T05:56:51.636Z,96345.34
2022-11-19T05:59:18.324Z,96345.91
2022-11-19T06:01:45.016Z,96344.13
2022-11-19T06:04:11.482Z,96348.22
2022-11-19T06:06:38.018Z,96348.53
2022-11-19T06:09:04.427Z,96341.03
2022-11-19T06:11:50.312Z,96339.34
2022-11-19T06:14:17.396Z,96347.56
2022-11-19T06:16:43.914Z,96352.09
2022-11-19T06:19:10.447Z,96354.38
2022-11-19T06:21:37.030Z,96356.13
2022-11-19T06:24:03.517Z,96361.72
2022-11-19T06:26:29.951Z,96370.09
2022-11-19T06:28:56.415Z,96373.38
2022-11-19T06:31:23.129Z,96380.06
2022-11-19T06:33:49.707Z,96385.66
2022-11-19T06:36:16.150Z,96386.63
2022-11-19T06:38:42.574Z,96381.81
2022-11-19T06:41:08.937Z,96389.31
2022-11-19T06:43:35.368Z,96396.00
2022-11-19T06:46:01.811Z,96399.41
2022-11-19T06:48:28.238Z,96394.34
2022-11-19T06:50:54.714Z,96397.78
2022-11-19T06:53:21.166Z,96401.44
2022-11-19T06:55:47.579Z,96416.53
2022-11-19T06:58:16.948Z,96412.97
2022-11-19T07:00:43.338Z,96408.06
2022-11-19T07:03:09.785Z,96411.19
2022-11-19T07:05:36.213Z,96412.31
2022-11-19T07:08:03.440Z,96416.69
2022-11-19T07:10:30.172Z,96426.09
2022-11-19T07:12:56.626Z,96430.47
2022-11-19T07:15:23.066Z,96431.59
2022-11-19T07:17:49.469Z,96430.78
2022-11-19T07:20:16.694Z,96436.22
2022-11-19T07:22:43.106Z,96441.41
2022-11-19T07:25:12.522Z,96442.94
2022-11-19T07:27:39.540Z,96445.25
2022-11-19T07:30:07.457Z,96444.72
2022-11-19T07:32:34.249Z,96451.41
2022-11-19T07:35:00.650Z,96448.81
2022-11-19T07:37:27.049Z,96456.59
2022-11-19T07:39:53.586Z,96457.56
2022-11-19T07:42:38.683Z,96462.19
2022-11-19T07:45:05.518Z,96445.91
2022-11-19T07:47:33.318Z,96451.81
2022-11-19T07:49:59.718Z,96456.19
2022-11-19T07:52:26.091Z,96445.78
2022-11-19T07:54:52.595Z,96459.88
2022-11-19T07:57:19.016Z,96452.91
2022-11-19T07:59:45.459Z,96456.75
2022-11-19T08:02:12.208Z,96463.44
2022-11-19T08:04:38.689Z,96461.66
2022-11-19T08:07:05.153Z,96469.59
2022-11-19T08:09:31.606Z,96467.94
2022-11-19T08:11:58.031Z,96476.13
2022-11-19T08:14:24.455Z,96468.56
2022-11-19T08:17:09.621Z,96469.25
2022-11-19T08:19:36.527Z,96470.78
2022-11-19T08:22:02.916Z,96471.44
2022-11-19T08:24:29.478Z,96474.50
2022-11-19T08:26:55.879Z,96478.88
2022-11-19T08:29:23.829Z,96481.16
2022-11-19T08:31:50.583Z,96478.66
2022-11-19T08:34:17.574Z,96483.75
2022-11-19T08:36:44.281Z,96474.84
2022-11-19T08:39:10.757Z,96484.81
2022-11-19T08:41:55.990Z,96477.66
2022-11-19T08:44:22.864Z,96488.31
2022-11-19T08:46:50.246Z,96493.28
2022-11-19T08:49:16.689Z,96489.47
2022-11-19T08:51:43.058Z,96498.91
2022-11-19T08:54:09.519Z,96503.53
2022-11-19T08:56:35.946Z,96501.59
2022-11-19T08:59:03.430Z,96502.28
2022-11-19T09:01:30.114Z,96508.56
2022-11-19T09:03:56.519Z,96503.22
2022-11-19T09:06:23.404Z,96505.84
2022-11-19T09:08:49.872Z,96519.41
2022-11-19T09:11:17.349Z,96529.41
2022-11-19T09:13:43.755Z,96527.75
2022-11-19T09:16:10.293Z,96528.97
2022-11-19T09:18:39.219Z,96532.56
2022-11-19T09:21:06.352Z,96528.06
2022-11-19T09:23:32.918Z,96535.75
2022-11-19T09:26:03.574Z,96535.19
2022-11-19T09:28:30.206Z,96536.81
2022-11-19T09:30:56.613Z,96545.56
2022-11-19T09:33:23.034Z,96546.38
2022-11-19T09:35:49.461Z,96544.59
2022-11-19T09:38:15.868Z,96545.56
2022-11-19T09:40:54.626Z,96556.78
2022-11-19T09:43:22.774Z,96553.91
2022-11-19T09:46:01.478Z,96567.72
2022-11-19T09:48:27.932Z,96563.06
2022-11-19T09:51:00.218Z,96566.34
2022-11-19T09:53:30.321Z,96563.63
2022-11-19T09:55:56.767Z,96571.25
2022-11-19T09:58:25.636Z,96579.03
2022-11-19T10:00:52.107Z,96577.69
2022-11-19T10:03:20.597Z,96574.56
2022-11-19T10:05:53.054Z,96576.75
2022-11-19T10:08:38.250Z,96572.66
2022-11-19T10:11:08.664Z,96574.53
2022-11-19T10:13:38.061Z,96580.56
2022-11-19T10:16:08.120Z,96579.88
2022-11-19T10:18:57.820Z,96575.78
2022-11-19T10:21:34.270Z,96577.00
2022-11-19T10:24:03.645Z,96574.56
2022-11-19T10:26:34.578Z,96577.97
2022-11-19T10:29:01.003Z,96575.66
2022-11-19T10:31:39.856Z,96575.66
2022-11-19T10:34:09.066Z,96577.53
2022-11-19T10:36:46.007Z,96579.75
2022-11-19T10:39:20.588Z,96580.41
2022-11-19T10:42:03.220Z,96587.69
2022-11-19T10:44:43.208Z,96581.78
2022-11-19T10:47:09.634Z,96572.06
2022-11-19T10:49:38.287Z,96577.66
2022-11-19T10:52:04.946Z,96575.03
2022-11-19T10:54:31.430Z,96577.38
2022-11-19T10:56:57.888Z,96574.09
2022-11-19T10:59:25.057Z,96572.47
2022-11-19T11:01:53.025Z,96591.31
2022-11-19T11:04:20.890Z,96586.97
2022-11-19T11:06:54.265Z,96589.84
2022-11-19T11:09:34.113Z,96586.44
2022-11-19T11:12:31.446Z,96587.69
2022-11-19T11:15:08.269Z,96589.16
2022-11-19T11:17:36.593Z,96583.66
2022-11-19T11:20:07.297Z,96585.97
2022-11-19T11:22:33.839Z,96592.72
2022-11-19T11:25:06.763Z,96587.63
2022-11-19T11:27:34.807Z,96586.50
2022-11-19T11:30:05.565Z,96586.78
2022-11-19T11:32:32.206Z,96584.88
2022-11-19T11:35:02.342Z,96584.34
2022-11-19T11:37:33.154Z,96581.06
2022-11-19T11:39:59.654Z,96582.41
2022-11-19T11:42:27.115Z,96572.72
2022-11-19T11:44:54.288Z,96575.06
2022-11-19T11:47:21.380Z,96569.03
2022-11-19T11:49:49.496Z,96568.47
2022-11-19T11:52:19.786Z,96569.00
2022-11-19T11:55:01.511Z,96571.28
2022-11-19T11:57:29.282Z,96578.22
2022-11-19T11:59:55.829Z,96574.81
2022-11-19T12:02:30.620Z,96577.25
2022-11-19T12:04:59.000Z,96573.88
2022-11-19T12:07:37.854Z,96565.00
2022-11-19T12:10:07.365Z,96565.88
2022-11-19T12:12:44.613Z,96554.97
2022-11-19T12:15:22.571Z,96556.84
2022-11-19T12:17:49.004Z,96565.28
2022-11-19T12:20:24.018Z,96558.59
2022-11-19T12:23:09.258Z,96563.34
2022-11-19T12:25:46.071Z,96561.34
2022-11-19T12:28:24.805Z,96566.56
2022-11-19T12:30:58.378Z,96564.38
2022-11-19T12:33:28.704Z,96571.22
2022-11-19T12:35:55.153Z,96565.06
2022-11-19T12:38:40.342Z,96565.66
2022-11-19T12:41:19.020Z,96575.09
2022-11-19T12:43:45.666Z,96565.63
2022-11-19T12:46:20.275Z,96568.44
2022-11-19T12:48:52.711Z,96572.72
2022-11-19T12:51:38.020Z,96571.66
2022-11-19T12:54:04.657Z,96575.91
2022-11-19T12:56:46.762Z,96574.50
2022-11-19T12:59:19.652Z,96579.44
2022-11-19T13:01:48.246Z,96570.84
2022-11-19T13:04:17.139Z,96568.72
2022-11-19T13:06:49.587Z,96573.00
2022-11-19T13:09:22.411Z,96572.75
2022-11-19T13:11:53.548Z,96573.75
2022-11-19T13:14:29.200Z,96574.38
2022-11-19T13:16:55.598Z,96572.19
2022-11-19T13:19:27.255Z,96574.13
2022-11-19T13:22:12.541Z,96579.91
2022-11-19T13:24:57.484Z,96571.13
2022-11-19T13:27:24.109Z,96571.88
2022-11-19T13:30:01.143Z,96570.00
2022-11-19T13:32:30.434Z,96577.94
2022-11-19T13:35:03.015Z,96571.41
2022-11-19T13:37:32.441Z,96566.72
2022-11-19T13:40:06.930Z,96565.59
2022-11-19T13:43:17.257Z,96575.47
2022-11-19T13:45:38.746Z,96576.63
2022-11-19T13:48:28.460Z,96586.91
2022-11-19T13:50:55.580Z,96578.66
2022-11-19T13:53:40.835Z,96579.75
2022-11-19T13:56:12.327Z,96580.13
2022-11-19T13:58:38.797Z,96573.91
2022-11-19T14:01:08.791Z,96578.03
2022-11-19T14:03:38.571Z,96577.56
2022-11-19T14:06:04.961Z,96573.38
2022-11-19T14:08:49.842Z,96573.19
2022-11-19T14:11:22.335Z,96572.72
2022-11-19T14:13:54.994Z,96576.66
2022-11-19T14:16:47.182Z,96574.13
2022-11-19T14:19:33.434Z,96575.91
2022-11-19T14:22:18.930Z,96579.84
2022-11-19T14:25:07.219Z,96576.94
2022-11-19T14:27:33.886Z,96584.50
2022-11-19T14:30:00.325Z,96585.13
2022-11-19T14:32:37.136Z,96585.81
2022-11-19T14:35:04.540Z,96593.22
2022-11-19T14:37:37.163Z,96591.88
2022-11-19T14:40:12.932Z,96595.03
2022-11-19T14:43:18.095Z,96590.56
2022-11-19T14:46:05.746Z,96594.69
2022-11-19T14:48:33.035Z,96592.91
2022-11-19T14:51:08.795Z,96587.97
2022-11-19T14:53:51.538Z,96589.34
2022-11-19T14:56:19.744Z,96582.38
2022-11-19T14:58:50.488Z,96591.44
2022-11-19T15:01:20.800Z,96588.44
2022-11-19T15:03:48.607Z,96589.81
2022-11-19T15:06:16.752Z,96596.94
2022-11-19T15:08:46.681Z,96596.41
2022-11-19T15:11:14.050Z,96598.31
2022-11-19T15:13:41.159Z,96593.41
2022-11-19T15:16:13.659Z,96598.16
2022-11-19T15:18:44.430Z,96592.31
2022-11-19T15:21:29.596Z,96591.91
2022-11-19T15:24:14.878Z,96593.13
2022-11-19T15:26:53.671Z,96600.09
2022-11-19T15:29:38.939Z,96592.88
2022-11-19T15:32:08.341Z,96595.31
2022-11-19T15:35:04.058Z,96597.78
2022-11-19T15:37:51.737Z,96597.94
2022-11-19T15:40:22.406Z,96599.13
2022-11-19T15:42:54.607Z,96601.72
2022-11-19T15:45:21.889Z,96594.75
2022-11-19T15:48:00.793Z,96610.88
2022-11-19T15:50:28.235Z,96608.69
2022-11-19T15:53:14.481Z,96609.66
2022-11-19T15:55:47.225Z,96598.00
2022-11-19T15:58:14.425Z,96610.31
2022-11-19T16:00:44.683Z,96607.16
2022-11-19T16:03:11.114Z,96604.84
2022-11-19T16:05:37.543Z,96603.47
2022-11-19T16:08:04.797Z,96610.28
2022-11-19T16:10:31.729Z,96611.13
2022-11-19T16:13:17.878Z,96610.94
2022-11-19T16:16:06.476Z,96610.13
2022-11-19T16:18:33.021Z,96606.97
2022-11-19T16:20:59.805Z,96606.44
2022-11-19T16:23:26.228Z,96613.25
2022-11-19T16:25:53.193Z,96604.25
2022-11-19T16:28:21.444Z,96605.34
2022-11-19T16:30:54.830Z,96608.88
2022-11-19T16:33:25.293Z,96610.25
2022-11-19T16:35:53.517Z,96606.28
2022-11-19T16:38:25.808Z,96608.56
2022-11-19T16:41:10.994Z,96609.22
2022-11-19T16:43:37.475Z,96605.00
2022-11-19T16:46:04.652Z,96609.22
2022-11-19T16:48:31.045Z,96615.50
2022-11-19T16:50:57.643Z,96611.13
2022-11-19T16:53:43.972Z,96610.31
2022-11-19T16:56:15.578Z,96608.69
2022-11-19T16:58:43.255Z,96604.47
2022-11-19T17:01:09.695Z,96607.06
2022-11-19T17:03:36.415Z,96605.69
2022-11-19T17:06:03.326Z,96602.28
2022-11-19T17:08:33.829Z,96605.81
2022-11-19T17:11:33.733Z,96604.31
2022-11-19T17:14:20.869Z,96608.41
2022-11-19T17:16:48.177Z,96603.59
2022-11-19T17:19:16.765Z,96612.59
2022-11-19T17:21:46.282Z,96606.31
2022-11-19T17:24:12.854Z,96615.53
2022-11-19T17:26:39.562Z,96608.16
2022-11-19T17:29:10.386Z,96612.09
2022-11-19T17:31:36.818Z,96616.56
2022-11-19T17:34:29.701Z,96617.66
2022-11-19T17:36:56.155Z,96618.03
2022-11-19T17:39:25.349Z,96614.06
2022-11-19T17:42:14.014Z,96608.31
2022-11-19T17:44:40.471Z,96614.84
2022-11-19T17:47:24.602Z,96619.31
2022-11-19T17:49:51.614Z,96619.13
2022-11-19T17:52:22.717Z,96632.16
2022-11-19T17:54:50.196Z,96623.47
2022-11-19T17:57:16.625Z,96633.88
2022-11-19T17:59:43.071Z,96630.59
2022-11-19T18:02:12.133Z,96623.47
2022-11-19T18:04:38.580Z,96629.34
2022-11-19T18:07:05.044Z,96634.34
2022-11-19T18:09:34.957Z,96628.16
2022-11-19T18:12:01.611Z,96631.91
2022-11-19T18:14:28.006Z,96637.56
2022-11-19T18:16:54.460Z,96634.53
2022-11-19T18:19:28.532Z,96641.59
2022-11-19T18:21:55.092Z,96646.97
2022-11-19T18:24:21.480Z,96645.59
2022-11-19T18:26:47.902Z,96645.84
2022-11-19T18:29:14.311Z,96654.66
2022-11-19T18:31:45.489Z,96646.31
2022-11-19T18:34:13.761Z,96651.00
2022-11-19T18:36:40.211Z,96655.34
2022-11-19T18:39:06.605Z,96646.44
2022-11-19T18:41:32.988Z,96645.13
2022-11-19T18:44:18.057Z,96635.28
2022-11-19T18:46:44.447Z,96639.31
2022-11-19T18:49:10.916Z,96642.47
2022-11-19T18:51:37.366Z,96645.78
2022-11-19T18:54:03.866Z,96645.88
2022-11-19T18:56:30.374Z,96651.06
2022-11-19T18:59:00.428Z,96650.69
2022-11-19T19:01:30.896Z,96645.28
2022-11-19T19:03:57.481Z,96654.34
2022-11-19T19:06:25.694Z,96648.69
2022-11-19T19:08:52.141Z,96647.28
2022-11-19T19:11:37.238Z,96652.59
2022-11-19T19:14:04.181Z,96640.00
2022-11-19T19:16:30.820Z,96644.34
2022-11-19T19:18:57.265Z,96641.16
2022-11-19T19:21:23.753Z,96649.03
2022-11-19T19:23:50.397Z,96653.38
2022-11-19T19:26:17.573Z,96651.38
2022-11-19T19:28:44.079Z,96644.22
2022-11-19T19:31:14.942Z,96655.16
2022-11-19T19:33:46.194Z,96652.47
2022-11-19T19:36:12.722Z,96658.69
2022-11-19T19:38:40.791Z,96659.72
2022-11-19T19:41:08.473Z,96657.25
2022-11-19T19:43:34.900Z,96653.63
2022-11-19T19:46:15.983Z,96656.53
2022-11-19T19:48:42.916Z,96651.50
2022-11-19T19:51:09.369Z,96668.13
2022-11-19T19:53:37.873Z,96656.41
2022-11-19T19:56:04.614Z,96656.63
2022-11-19T19:58:31.430Z,96659.09
2022-11-19T20:01:07.553Z,96650.41
2022-11-19T20:03:34.954Z,96652.66
2022-11-19T20:06:01.883Z,96648.19
2022-11-19T20:08:28.361Z,96640.69
2022-11-19T20:10:55.051Z,96642.78
2022-11-19T20:13:27.635Z,96645.13
2022-11-19T20:15:56.827Z,96635.50
2022-11-19T20:18:23.561Z,96642.78
2022-11-19T20:20:50.174Z,96651.94
2022-11-19T20:23:16.799Z,96647.22
2022-11-19T20:25:43.593Z,96644.97
2022-11-19T20:28:10.021Z,96651.41
2022-11-19T20:30:36.497Z,96649.28
2022-11-19T20:33:02.931Z,96653.50
2022-11-19T20:35:29.579Z,96654.91
2022-11-19T20:38:00.764Z,96647.38
2022-11-19T20:40:29.685Z,96649.25
2022-11-19T20:43:14.710Z,96647.63
2022-11-19T20:45:41.127Z,96646.19
2022-11-19T20:48:07.580Z,96639.47
2022-11-19T20:50:34.041Z,96637.72
2022-11-19T20:53:01.896Z,96635.88
2022-11-19T20:55:28.322Z,96634.31
2022-11-19T20:57:55.412Z,96640.66
2022-11-19T21:00:21.902Z,96646.84
2022-11-19T21:02:48.349Z,96652.94
2022-11-19T21:05:14.807Z,96646.59
2022-11-19T21:07:41.239Z,96649.19
2022-11-19T21:10:08.238Z,96654.34
2022-11-19T21:12:34.702Z,96652.06
2022-11-19T21:15:02.105Z,96655.59
2022-11-19T21:17:28.529Z,96653.13
2022-11-19T21:19:54.959Z,96648.78
2022-11-19T21:22:21.459Z,96647.03
2022-11-19T21:24:47.903Z,96636.94
2022-11-19T21:27:14.332Z,96641.50
2022-11-19T21:29:40.770Z,96642.66
2022-11-19T21:32:07.821Z,96652.78
2022-11-19T21:34:34.222Z,96643.28
2022-11-19T21:37:00.740Z,96646.69
2022-11-19T21:39:27.211Z,96635.69
2022-11-19T21:41:53.624Z,96644.34
2022-11-19T21:44:22.041Z,96637.75
2022-11-19T21:46:48.696Z,96650.16
2022-11-19T21:49:15.127Z,96645.19
2022-11-19T21:51:41.547Z,96643.56
2022-11-19T21:54:08.114Z,96639.44
2022-11-19T22:00:03.714Z,96638.03
2022-11-19T22:02:30.096Z,96649.16
2022-11-19T22:04:56.548Z,96647.50
2022-11-19T22:07:23.008Z,96649.16
2022-11-19T22:09:49.520Z,96649.38
2022-11-19T22:12:15.973Z,96650.09
2022-11-19T22:14:42.469Z,96641.09
2022-11-19T22:17:08.906Z,96645.59
2022-11-19T22:19:36.001Z,96651.84
2022-11-19T22:22:03.455Z,96649.28
2022-11-19T22:24:30.254Z,96642.97
2022-11-19T22:26:56.679Z,96645.22
2022-11-19T22:29:23.313Z,96643.47
2022-11-19T22:31:49.910Z,96644.22
2022-11-19T22:34:16.274Z,96648.25
2022-11-19T22:36:42.903Z,96646.03
2022-11-19T22:39:09.429Z,96644.88
2022-11-19T22:41:36.025Z,96636.59
2022-11-19T22:44:02.517Z,96636.06
2022-11-19T22:46:28.955Z,96636.06
2022-11-19T22:48:55.344Z,96644.31
2022-11-19T22:51:22.373Z,96641.63
2022-11-19T22:53:49.303Z,96644.09
2022-11-19T22:56:19.865Z,96636.25
2022-11-19T22:58:46.389Z,96632.84
2022-11-19T23:01:17.212Z,96631.91
2022-11-19T23:03:43.783Z,96632.84
2022-11-19T23:06:10.197Z,96632.97
2022-11-19T23:08:36.973Z,96631.53
2022-11-19T23:11:04.622Z,96633.19
2022-11-19T23:13:32.051Z,96637.53
2022-11-19T23:15:59.198Z,96629.03
2022-11-19T23:18:25.803Z,96630.91
2022-11-19T23:20:59.227Z,96626.69
2022-11-19T23:23:25.713Z,96633.50
2022-11-19T23:25:56.485Z,96620.41
2022-11-19T23:28:23.201Z,96612.66
2022-11-19T23:30:49.621Z,96614.03
2022-11-19T23:33:16.083Z,96618.13
2022-11-19T23:35:42.552Z,96611.50
2022-11-19T23:38:09.156Z,96606.69
2022-11-19T23:40:35.571Z,96614.44
2022-11-19T23:43:01.985Z,96617.59
2022-11-19T23:45:28.378Z,96612.94
2022-11-19T23:47:54.793Z,96606.84
2022-11-19T23:50:21.147Z,96610.63
2022-11-19T23:52:47.550Z,96603.38
2022-11-19T23:55:13.958Z,96599.59
2022-11-19T23:57:40.413Z,96596.19
